Time;durP1;ratioP1;P1;durP2;ratioP2;P2;SDS_P1;SDS_P2;PMS_P1;PMS_P2;Temp;Humidity;BMP_temperature;BMP_pressure;BME280_temperature;BME280_humidity;BME280_pressure;Samples;Min_cycle;Max_cycle;Signal;HPM_P1;HPM_P2
2022/04/16 00:01:55;;;;;;;23.52;12.10;;;;;;;;;;4932289;29;20071;-67
2022/04/16 00:04:22;;;;;;;17.35;11.15;;;;;;;;;;4934162;29;20088;-67
2022/04/16 00:06:48;;;;;;;16.00;10.63;;;;;;;;;;4934555;29;20051;-67
2022/04/16 00:09:14;;;;;;;19.52;11.48;;;;;;;;;;4933877;29;20467;-67
2022/04/16 00:11:40;;;;;;;19.52;11.23;;;;;;;;;;4934393;29;20390;-67
2022/04/16 00:14:06;;;;;;;15.38;11.55;;;;;;;;;;4934490;29;20134;-67
2022/04/16 00:16:33;;;;;;;16.40;11.52;;;;;;;;;;4933905;29;20434;-67
2022/04/16 00:18:59;;;;;;;23.17;12.15;;;;;;;;;;4934057;29;20055;-67
2022/04/16 00:21:25;;;;;;;18.08;11.48;;;;;;;;;;4933031;29;20489;-67
2022/04/16 00:23:54;;;;;;;17.45;11.98;;;;;;;;;;4933756;29;20043;-67
2022/04/16 00:26:21;;;;;;;16.67;11.38;;;;;;;;;;4936144;29;20046;-67
2022/04/16 00:28:49;;;;;;;19.10;12.45;;;;;;;;;;4938030;29;20044;-67
2022/04/16 00:31:15;;;;;;;19.02;12.60;;;;;;;;;;4937677;29;20383;-67
2022/04/16 00:33:41;;;;;;;18.10;12.82;;;;;;;;;;4938099;29;20052;-67
2022/04/16 00:36:07;;;;;;;22.42;13.05;;;;;;;;;;4938245;29;20148;-67
2022/04/16 00:38:33;;;;;;;18.13;12.73;;;;;;;;;;4937403;29;20043;-67
2022/04/16 00:41:02;;;;;;;23.17;14.02;;;;;;;;;;4938081;29;20047;-67
2022/04/16 00:43:29;;;;;;;23.42;14.52;;;;;;;;;;4938153;29;20051;-67
2022/04/16 00:45:55;;;;;;;22.75;14.13;;;;;;;;;;4937408;29;20044;-67
2022/04/16 00:48:22;;;;;;;21.02;12.88;;;;;;;;;;4937862;29;20043;-67
2022/04/16 00:50:50;;;;;;;23.10;14.23;;;;;;;;;;4937676;29;20043;-67
2022/04/16 00:53:16;;;;;;;22.52;14.35;;;;;;;;;;4936869;29;20126;-67
2022/04/16 00:55:42;;;;;;;26.13;14.27;;;;;;;;;;4937944;29;20059;-67
2022/04/16 00:58:09;;;;;;;22.67;13.70;;;;;;;;;;4968525;28;20047;-67
2022/04/16 01:00:35;;;;;;;23.80;14.90;;;;;;;;;;4936861;29;20711;-67
2022/04/16 01:03:01;;;;;;;25.33;14.73;;;;;;;;;;4937536;29;20078;-67
2022/04/16 01:05:27;;;;;;;30.85;15.27;;;;;;;;;;4937577;29;20047;-67
2022/04/16 01:07:53;;;;;;;22.75;14.15;;;;;;;;;;4936597;29;20044;-67
2022/04/16 01:10:21;;;;;;;23.77;14.88;;;;;;;;;;4937487;29;20059;-67
2022/04/16 01:12:47;;;;;;;23.83;14.77;;;;;;;;;;4937457;29;20050;-67
2022/04/16 01:15:13;;;;;;;21.95;14.77;;;;;;;;;;4936573;29;20095;-67
2022/04/16 01:17:40;;;;;;;22.77;13.95;;;;;;;;;;4968348;28;20047;-67
2022/04/16 01:20:09;;;;;;;22.95;13.63;;;;;;;;;;4919561;29;20119;-67
2022/04/16 01:22:35;;;;;;;23.88;15.27;;;;;;;;;;4917743;29;20107;-67
2022/04/16 01:25:02;;;;;;;20.63;14.45;;;;;;;;;;4901210;29;20052;-67
2022/04/16 01:27:28;;;;;;;25.15;15.43;;;;;;;;;;4918299;29;20081;-67
2022/04/16 01:29:55;;;;;;;23.08;14.80;;;;;;;;;;4917620;29;20051;-67
2022/04/16 01:32:23;;;;;;;20.73;14.40;;;;;;;;;;4917974;29;20052;-67
2022/04/16 01:34:49;;;;;;;24.42;15.25;;;;;;;;;;4918224;29;20055;-67
2022/04/16 01:37:15;;;;;;;26.27;15.48;;;;;;;;;;4917282;29;20044;-67
2022/04/16 01:39:41;;;;;;;24.15;15.50;;;;;;;;;;4917933;29;20147;-67
2022/04/16 01:42:07;;;;;;;23.60;15.95;;;;;;;;;;4918031;29;20135;-67
2022/04/16 01:44:33;;;;;;;27.45;15.88;;;;;;;;;;4917386;29;20048;-67
2022/04/16 01:46:59;;;;;;;26.30;15.65;;;;;;;;;;4917661;29;20123;-67
2022/04/16 01:49:26;;;;;;;24.95;14.50;;;;;;;;;;4917846;29;20547;-67
2022/04/16 01:51:54;;;;;;;23.35;14.52;;;;;;;;;;4917216;29;20056;-67
2022/04/16 01:54:20;;;;;;;22.88;14.90;;;;;;;;;;4917954;29;20044;-67
2022/04/16 01:56:46;;;;;;;26.63;15.38;;;;;;;;;;4917806;29;20463;-67
2022/04/16 01:59:12;;;;;;;23.98;15.30;;;;;;;;;;4917221;29;20036;-67
2022/04/16 02:01:38;;;;;;;21.83;14.30;;;;;;;;;;4917247;29;20135;-67
2022/04/16 02:04:06;;;;;;;23.23;14.75;;;;;;;;;;4917740;29;20491;-67
2022/04/16 02:06:32;;;;;;;26.08;16.25;;;;;;;;;;4917385;29;20131;-67
2022/04/16 02:08:58;;;;;;;26.58;16.02;;;;;;;;;;4917237;29;20051;-67
2022/04/16 02:11:24;;;;;;;22.88;15.20;;;;;;;;;;4917300;29;20055;-67
2022/04/16 02:13:50;;;;;;;25.10;15.45;;;;;;;;;;4917194;29;20044;-67
2022/04/16 02:16:16;;;;;;;22.92;16.05;;;;;;;;;;4916993;29;20040;-67
2022/04/16 02:18:42;;;;;;;25.00;16.67;;;;;;;;;;4924033;29;20036;-67
2022/04/16 02:21:10;;;;;;;23.13;15.13;;;;;;;;;;4966945;28;20379;-67
2022/04/16 02:23:36;;;;;;;24.75;15.48;;;;;;;;;;4935853;29;20771;-67
2022/04/16 02:26:07;;;;;;;21.90;15.60;;;;;;;;;;4936334;29;20126;-67
2022/04/16 02:28:34;;;;;;;23.10;15.15;;;;;;;;;;4936246;29;20055;-67
2022/04/16 02:31:00;;;;;;;24.30;15.10;;;;;;;;;;4935603;29;20467;-67
2022/04/16 02:33:27;;;;;;;22.52;15.38;;;;;;;;;;4966896;28;20055;-67
2022/04/16 02:35:53;;;;;;;24.88;14.73;;;;;;;;;;4936106;29;20514;-67
2022/04/16 02:38:20;;;;;;;25.67;14.82;;;;;;;;;;4935240;29;20102;-67
2022/04/16 02:40:47;;;;;;;24.38;15.77;;;;;;;;;;4935784;29;20036;-67
2022/04/16 02:43:13;;;;;;;25.10;15.98;;;;;;;;;;4935879;29;20040;-67
2022/04/16 02:48:23;;;;;;;26.95;16.98;;;;;;;;;;4935094;29;20064;-67
2022/04/16 02:50:52;;;;;;;28.73;17.15;;;;;;;;;;4935794;29;20383;-67
2022/04/16 02:53:19;;;;;;;26.33;15.57;;;;;;;;;;4935226;29;20075;-67
2022/04/16 02:55:46;;;;;;;26.92;16.60;;;;;;;;;;4966303;28;20044;-67
2022/04/16 02:58:13;;;;;;;29.88;17.88;;;;;;;;;;4949852;28;20048;-67
2022/04/16 03:00:41;;;;;;;31.30;17.98;;;;;;;;;;4934536;29;20066;-67
2022/04/16 03:03:08;;;;;;;29.05;17.48;;;;;;;;;;4934023;29;20122;-67
2022/04/16 03:05:35;;;;;;;31.67;18.02;;;;;;;;;;4935402;29;20501;-67
2022/04/16 03:08:01;;;;;;;33.10;18.55;;;;;;;;;;4933584;29;20052;-67
2022/04/16 03:10:27;;;;;;;32.15;18.63;;;;;;;;;;4935475;29;20411;-67
2022/04/16 03:12:55;;;;;;;37.42;19.25;;;;;;;;;;4935331;29;20044;-67
2022/04/16 03:18:07;;;;;;;29.83;18.65;;;;;;;;;;4933379;29;20095;-67
2022/04/16 03:20:33;;;;;;;31.77;18.75;;;;;;;;;;4915844;29;20463;-67
2022/04/16 03:23:00;;;;;;;33.53;19.30;;;;;;;;;;4915885;29;20080;-67
2022/04/16 03:25:27;;;;;;;31.70;20.08;;;;;;;;;;4916146;29;20068;-67
2022/04/16 03:27:54;;;;;;;32.90;18.70;;;;;;;;;;4915661;29;20043;-67
2022/04/16 03:30:20;;;;;;;31.95;18.20;;;;;;;;;;4915578;29;20127;-67
2022/04/16 03:32:50;;;;;;;33.17;20.00;;;;;;;;;;4916098;29;20076;-67
2022/04/16 03:35:18;;;;;;;31.70;19.65;;;;;;;;;;4915981;29;20506;-67
2022/04/16 03:37:44;;;;;;;34.08;19.92;;;;;;;;;;4914121;29;20102;-67
2022/04/16 03:40:12;;;;;;;34.72;20.50;;;;;;;;;;4916040;29;20201;-67
2022/04/16 03:42:47;;;;;;;31.08;19.17;;;;;;;;;;4915999;29;20052;-67
2022/04/16 03:45:39;;;;;;;36.20;20.77;;;;;;;;;;4915809;29;20044;-67
2022/04/16 03:48:06;;;;;;;38.50;21.77;;;;;;;;;;4913378;29;20048;-67
2022/04/16 03:50:33;;;;;;;33.63;18.88;;;;;;;;;;4915204;29;20052;-67
2022/04/16 03:52:59;;;;;;;30.80;18.80;;;;;;;;;;4915816;29;20051;-67
2022/04/16 04:00:58;;;;;;;30.10;18.70;;;;;;;;;;4914629;29;20605;-67
2022/04/16 04:03:24;;;;;;;34.25;20.48;;;;;;;;;;4915667;29;20062;-67
2022/04/16 04:05:53;;;;;;;34.65;20.02;;;;;;;;;;4914816;29;20106;-67
2022/04/16 04:08:20;;;;;;;35.63;21.20;;;;;;;;;;4915535;29;20104;-67
2022/04/16 04:10:46;;;;;;;37.00;21.65;;;;;;;;;;4915647;29;20040;-67
2022/04/16 04:13:13;;;;;;;37.00;20.88;;;;;;;;;;4914863;29;20048;-67
2022/04/16 04:15:39;;;;;;;38.67;21.70;;;;;;;;;;4915270;29;20044;-67
2022/04/16 04:18:05;;;;;;;38.03;21.48;;;;;;;;;;4914294;29;20052;-67
2022/04/16 04:20:32;;;;;;;38.90;22.05;;;;;;;;;;4914714;29;20048;-67
2022/04/16 04:22:58;;;;;;;38.35;21.92;;;;;;;;;;4915582;29;20048;-67
2022/04/16 04:25:24;;;;;;;36.70;23.02;;;;;;;;;;4915055;29;20047;-67
2022/04/16 04:27:50;;;;;;;35.03;21.90;;;;;;;;;;4914753;29;20051;-67
2022/04/16 04:30:16;;;;;;;34.28;21.08;;;;;;;;;;4915640;29;20043;-67
2022/04/16 04:32:42;;;;;;;34.15;22.23;;;;;;;;;;4915491;29;20065;-67
2022/04/16 04:35:09;;;;;;;37.58;21.92;;;;;;;;;;4914734;29;20427;-67
2022/04/16 04:37:36;;;;;;;38.35;22.95;;;;;;;;;;4915149;29;20514;-67
2022/04/16 04:40:03;;;;;;;35.20;21.30;;;;;;;;;;4915237;29;20040;-67
2022/04/16 04:42:30;;;;;;;35.95;22.52;;;;;;;;;;4914677;29;20048;-67
2022/04/16 04:44:56;;;;;;;33.90;21.58;;;;;;;;;;4915380;29;20051;-67
2022/04/16 04:47:23;;;;;;;38.53;22.75;;;;;;;;;;4915058;29;20048;-67
2022/04/16 04:49:49;;;;;;;36.55;21.88;;;;;;;;;;4914775;29;20040;-67
2022/04/16 04:52:21;;;;;;;32.35;19.95;;;;;;;;;;4915197;29;20349;-67
2022/04/16 04:54:47;;;;;;;36.47;22.10;;;;;;;;;;4915271;29;20046;-67
2022/04/16 04:57:13;;;;;;;34.15;21.70;;;;;;;;;;4914348;29;20172;-67
2022/04/16 04:59:39;;;;;;;31.35;19.45;;;;;;;;;;4915232;29;20451;-67
2022/04/16 05:02:06;;;;;;;34.83;19.73;;;;;;;;;;4914598;29;20052;-67
2022/04/16 05:04:32;;;;;;;28.17;18.90;;;;;;;;;;4914515;29;20162;-67
2022/04/16 05:06:58;;;;;;;32.20;19.42;;;;;;;;;;4914587;29;20055;-67
2022/04/16 05:09:24;;;;;;;29.90;17.92;;;;;;;;;;4914689;29;20135;-67
2022/04/16 05:11:51;;;;;;;27.92;17.45;;;;;;;;;;4915166;29;20048;-67
2022/04/16 05:14:17;;;;;;;28.48;17.40;;;;;;;;;;4918643;29;20503;-67
2022/04/16 05:16:43;;;;;;;25.83;16.00;;;;;;;;;;4918448;29;20108;-67
2022/04/16 05:19:09;;;;;;;33.00;17.73;;;;;;;;;;4927739;29;20048;-67
2022/04/16 05:21:35;;;;;;;29.25;17.40;;;;;;;;;;4937004;29;20044;-67
2022/04/16 05:24:01;;;;;;;31.70;17.73;;;;;;;;;;4937495;29;20135;-67
2022/04/16 05:26:27;;;;;;;28.77;17.50;;;;;;;;;;4936706;29;20043;-67
2022/04/16 05:28:53;;;;;;;28.90;16.63;;;;;;;;;;4937094;29;20877;-67
2022/04/16 05:31:20;;;;;;;26.88;15.90;;;;;;;;;;4937125;29;20658;-67
2022/04/16 05:36:31;;;;;;;28.20;16.65;;;;;;;;;;4937030;29;20047;-67
2022/04/16 05:38:57;;;;;;;29.67;16.73;;;;;;;;;;4936708;29;20095;-67
2022/04/16 05:41:23;;;;;;;25.13;15.00;;;;;;;;;;4936137;29;20047;-67
2022/04/16 05:43:49;;;;;;;25.27;15.07;;;;;;;;;;4936875;29;20035;-67
2022/04/16 05:46:15;;;;;;;26.48;15.27;;;;;;;;;;4936947;29;20131;-67
2022/04/16 05:48:41;;;;;;;26.08;16.05;;;;;;;;;;4966858;28;20043;-67
2022/04/16 05:51:07;;;;;;;25.48;15.82;;;;;;;;;;4936533;29;20043;-67
2022/04/16 05:53:34;;;;;;;24.60;15.23;;;;;;;;;;4936767;29;20048;-67
2022/04/16 05:56:00;;;;;;;24.33;14.82;;;;;;;;;;4936388;29;20044;-67
2022/04/16 05:58:26;;;;;;;27.52;15.27;;;;;;;;;;4936093;29;20047;-67
2022/04/16 06:00:52;;;;;;;26.08;14.75;;;;;;;;;;4936302;29;20107;-67
2022/04/16 06:03:19;;;;;;;20.23;12.85;;;;;;;;;;4936689;29;20387;-67
2022/04/16 06:05:46;;;;;;;25.38;14.20;;;;;;;;;;4936125;29;20047;-67
2022/04/16 06:08:12;;;;;;;21.65;13.50;;;;;;;;;;4936476;29;20051;-67
2022/04/16 06:10:38;;;;;;;22.65;13.73;;;;;;;;;;4936495;29;20126;-67
2022/04/16 06:13:04;;;;;;;22.92;13.65;;;;;;;;;;4935591;29;20130;-67
2022/04/16 06:15:31;;;;;;;22.33;13.90;;;;;;;;;;4936253;29;20039;-67
2022/04/16 06:17:57;;;;;;;22.52;13.13;;;;;;;;;;4935735;29;20039;-67
2022/04/16 06:20:24;;;;;;;21.80;12.68;;;;;;;;;;4916891;29;20047;-67
2022/04/16 06:22:50;;;;;;;23.63;13.63;;;;;;;;;;4917172;29;20048;-67
2022/04/16 06:25:16;;;;;;;21.40;13.25;;;;;;;;;;4916868;29;20054;-67
2022/04/16 06:27:42;;;;;;;18.73;11.88;;;;;;;;;;4916545;29;20143;-67
2022/04/16 06:30:11;;;;;;;21.20;12.63;;;;;;;;;;4917272;29;20416;-67
2022/04/16 06:32:38;;;;;;;22.90;12.55;;;;;;;;;;4917054;29;20104;-67
2022/04/16 06:35:05;;;;;;;19.92;12.13;;;;;;;;;;4916186;29;20119;-67
2022/04/16 06:37:37;;;;;;;22.60;14.30;;;;;;;;;;4916961;29;20036;-67
2022/04/16 06:40:05;;;;;;;22.40;11.90;;;;;;;;;;4917143;29;20040;-67
2022/04/16 06:42:31;;;;;;;23.92;13.95;;;;;;;;;;4916139;29;20059;-67
2022/04/16 06:44:57;;;;;;;24.75;13.57;;;;;;;;;;4916687;29;20050;-67
2022/04/16 06:47:24;;;;;;;20.83;13.07;;;;;;;;;;4916532;29;20407;-67
2022/04/16 06:49:50;;;;;;;22.05;12.68;;;;;;;;;;4914710;29;20052;-67
2022/04/16 06:52:19;;;;;;;25.13;13.00;;;;;;;;;;4916772;29;20368;-67
2022/04/16 06:54:48;;;;;;;17.33;10.90;;;;;;;;;;4915730;29;20643;-67
2022/04/16 06:57:14;;;;;;;22.65;13.02;;;;;;;;;;4914617;29;20128;-67
2022/04/16 06:59:40;;;;;;;21.92;12.00;;;;;;;;;;4916742;29;20385;-67
2022/04/16 07:02:08;;;;;;;21.10;11.93;;;;;;;;;;4916130;29;20078;-67
2022/04/16 07:04:34;;;;;;;17.95;10.27;;;;;;;;;;4915860;29;20087;-67
2022/04/16 07:07:00;;;;;;;17.10;11.70;;;;;;;;;;4916403;29;20043;-67
2022/04/16 07:09:26;;;;;;;18.70;12.10;;;;;;;;;;4916407;29;20428;-67
2022/04/16 07:11:52;;;;;;;19.55;11.75;;;;;;;;;;4915698;29;20048;-67
2022/04/16 07:14:18;;;;;;;19.35;12.13;;;;;;;;;;4916265;29;20059;-67
2022/04/16 07:16:44;;;;;;;18.58;11.90;;;;;;;;;;4916210;29;20040;-67
2022/04/16 07:19:10;;;;;;;19.02;12.07;;;;;;;;;;4925502;29;20048;-67
2022/04/16 07:21:36;;;;;;;22.35;11.68;;;;;;;;;;4935214;29;20032;-67
2022/04/16 07:24:02;;;;;;;19.52;11.32;;;;;;;;;;4935216;29;20054;-67
2022/04/16 07:26:28;;;;;;;19.13;11.52;;;;;;;;;;4934524;29;20043;-67
2022/04/16 07:28:54;;;;;;;17.27;11.05;;;;;;;;;;4934911;29;20179;-67
2022/04/16 07:31:20;;;;;;;18.08;11.68;;;;;;;;;;4935005;29;20109;-67
2022/04/16 07:33:47;;;;;;;18.00;10.95;;;;;;;;;;4934078;29;20566;-67
2022/04/16 07:36:13;;;;;;;17.88;10.95;;;;;;;;;;4934774;29;20043;-67
2022/04/16 07:38:43;;;;;;;18.58;10.52;;;;;;;;;;4934884;29;20051;-67
2022/04/16 07:41:10;;;;;;;19.17;11.48;;;;;;;;;;4934419;29;20055;-67
2022/04/16 07:43:36;;;;;;;20.35;11.07;;;;;;;;;;4934799;29;20130;-67
2022/04/16 07:46:02;;;;;;;17.00;10.27;;;;;;;;;;4934921;29;20047;-67
2022/04/16 07:48:29;;;;;;;13.75;9.13;;;;;;;;;;4934125;29;20079;-67
2022/04/16 07:50:55;;;;;;;13.63;9.05;;;;;;;;;;4934728;29;20047;-67
2022/04/16 07:53:21;;;;;;;14.05;9.40;;;;;;;;;;4934621;29;20048;-67
2022/04/16 07:55:47;;;;;;;13.60;9.15;;;;;;;;;;4934137;29;20043;-67
2022/04/16 07:58:13;;;;;;;15.05;9.20;;;;;;;;;;4934267;29;20043;-67
2022/04/16 08:00:39;;;;;;;13.98;8.60;;;;;;;;;;4934449;29;20052;-67
2022/04/16 08:03:06;;;;;;;12.25;8.20;;;;;;;;;;4933590;29;20087;-67
2022/04/16 08:05:32;;;;;;;13.18;8.20;;;;;;;;;;4934315;29;20058;-67
2022/04/16 08:07:58;;;;;;;13.40;7.82;;;;;;;;;;4934360;29;20391;-67
2022/04/16 08:10:24;;;;;;;15.13;8.65;;;;;;;;;;4933898;29;20055;-67
2022/04/16 08:12:50;;;;;;;14.93;8.57;;;;;;;;;;4934350;29;20039;-67
2022/04/16 08:15:16;;;;;;;11.35;7.25;;;;;;;;;;4965106;28;20036;-67
2022/04/16 08:17:42;;;;;;;12.63;7.18;;;;;;;;;;4933797;29;20052;-67
2022/04/16 08:20:08;;;;;;;9.82;6.72;;;;;;;;;;4916636;29;20040;-67
2022/04/16 08:22:35;;;;;;;11.07;7.07;;;;;;;;;;4915456;29;20044;-67
2022/04/16 08:27:55;;;;;;;10.73;6.38;;;;;;;;;;4906811;29;20075;-67
2022/04/16 08:30:21;;;;;;;9.50;5.70;;;;;;;;;;4915310;29;20819;-67
2022/04/16 08:32:48;;;;;;;8.23;5.47;;;;;;;;;;4914447;29;20048;-67
2022/04/16 08:35:15;;;;;;;10.27;5.65;;;;;;;;;;4915336;29;20483;-67
2022/04/16 08:37:42;;;;;;;9.05;5.10;;;;;;;;;;4915292;29;20073;-67
2022/04/16 08:40:09;;;;;;;7.78;4.32;;;;;;;;;;4914631;29;20041;-67
2022/04/16 08:42:35;;;;;;;6.28;4.18;;;;;;;;;;4913921;29;20407;-67
2022/04/16 08:45:05;;;;;;;9.20;4.55;;;;;;;;;;4915392;29;20436;-67
2022/04/16 08:47:32;;;;;;;5.22;3.85;;;;;;;;;;4915288;29;20059;-67
2022/04/16 08:49:59;;;;;;;7.50;4.18;;;;;;;;;;4918896;29;20130;-67
2022/04/16 08:52:28;;;;;;;7.72;3.80;;;;;;;;;;4918933;29;20048;-67
2022/04/16 08:54:55;;;;;;;6.30;3.17;;;;;;;;;;4918301;29;20040;-67
2022/04/16 08:57:21;;;;;;;4.88;3.17;;;;;;;;;;4918742;29;20039;-67
2022/04/16 08:59:51;;;;;;;3.45;2.40;;;;;;;;;;4918856;29;20047;-67
2022/04/16 09:02:17;;;;;;;6.45;3.20;;;;;;;;;;4917621;29;20064;-67
2022/04/16 09:04:44;;;;;;;4.28;2.95;;;;;;;;;;4918670;29;20508;-67
2022/04/16 09:07:10;;;;;;;4.35;2.75;;;;;;;;;;4918485;29;20387;-67
2022/04/16 09:09:37;;;;;;;5.15;2.80;;;;;;;;;;4918003;29;20043;-67
2022/04/16 09:12:03;;;;;;;4.30;2.08;;;;;;;;;;4918541;29;20079;-67
2022/04/16 09:14:43;;;;;;;5.28;2.28;;;;;;;;;;4917328;29;20430;-67
2022/04/16 09:17:10;;;;;;;3.95;2.53;;;;;;;;;;4917878;29;20048;-67
2022/04/16 09:19:36;;;;;;;4.57;1.80;;;;;;;;;;4932046;29;20044;-67
2022/04/16 09:22:02;;;;;;;3.97;2.05;;;;;;;;;;4936814;29;20079;-67
2022/04/16 09:24:28;;;;;;;3.63;2.13;;;;;;;;;;4936444;29;20044;-67
2022/04/16 09:26:54;;;;;;;5.15;2.60;;;;;;;;;;4937326;29;20040;-67
2022/04/16 09:29:20;;;;;;;5.65;2.25;;;;;;;;;;4937343;29;20049;-67
2022/04/16 09:31:48;;;;;;;4.35;2.22;;;;;;;;;;4935399;29;20078;-67
2022/04/16 09:34:21;;;;;;;3.10;2.20;;;;;;;;;;4937169;29;20039;-67
2022/04/16 09:36:47;;;;;;;3.80;1.88;;;;;;;;;;4937184;28;20111;-67
2022/04/16 09:39:14;;;;;;;4.75;2.40;;;;;;;;;;4936215;29;20067;-67
2022/04/16 09:41:40;;;;;;;3.92;2.20;;;;;;;;;;4937063;29;20470;-67
2022/04/16 09:44:18;;;;;;;3.45;2.10;;;;;;;;;;4936955;29;20031;-67
2022/04/16 09:46:45;;;;;;;6.82;2.00;;;;;;;;;;4936391;29;20036;-67
2022/04/16 09:49:12;;;;;;;5.85;2.45;;;;;;;;;;4936696;29;20485;-67
2022/04/16 09:51:41;;;;;;;7.40;1.90;;;;;;;;;;4936776;29;20043;-67
2022/04/16 09:54:07;;;;;;;7.45;2.28;;;;;;;;;;4936272;29;20127;-67
2022/04/16 09:56:34;;;;;;;3.83;1.90;;;;;;;;;;4936768;29;20083;-67
2022/04/16 09:59:04;;;;;;;3.58;2.10;;;;;;;;;;4936740;29;20134;-67
2022/04/16 10:01:30;;;;;;;3.88;1.90;;;;;;;;;;4935447;29;20075;-67
2022/04/16 10:03:58;;;;;;;3.72;2.08;;;;;;;;;;4935102;29;20086;-67
2022/04/16 10:06:25;;;;;;;1.98;1.70;;;;;;;;;;4936463;29;20050;-67
2022/04/16 10:08:51;;;;;;;1.60;1.50;;;;;;;;;;4935707;29;20431;-67
2022/04/16 10:11:41;;;;;;;1.98;1.77;;;;;;;;;;4936684;29;20046;-67
2022/04/16 10:14:10;;;;;;;3.55;1.70;;;;;;;;;;4934897;28;20115;-67
2022/04/16 10:16:51;;;;;;;2.25;1.95;;;;;;;;;;4934565;29;20547;-67
2022/04/16 10:19:17;;;;;;;2.38;1.42;;;;;;;;;;4936055;29;20051;-67
2022/04/16 10:21:43;;;;;;;2.35;1.48;;;;;;;;;;4936089;29;20051;-67
2022/04/16 10:24:09;;;;;;;2.58;1.40;;;;;;;;;;4935604;29;20423;-67
2022/04/16 10:26:39;;;;;;;2.45;1.30;;;;;;;;;;4936155;29;20047;-67
2022/04/16 10:29:05;;;;;;;2.22;1.52;;;;;;;;;;4935094;29;20056;-67
2022/04/16 10:31:33;;;;;;;2.55;1.15;;;;;;;;;;4935327;29;20044;-67
2022/04/16 10:34:00;;;;;;;0.95;0.80;;;;;;;;;;4936220;29;20094;-67
2022/04/16 10:36:37;;;;;;;2.22;1.20;;;;;;;;;;4936167;29;20040;-67
2022/04/16 10:39:23;;;;;;;2.00;1.20;;;;;;;;;;4935415;29;20518;-67
2022/04/16 10:41:53;;;;;;;1.50;1.00;;;;;;;;;;4935403;29;20040;-67
2022/04/16 10:44:19;;;;;;;1.98;0.90;;;;;;;;;;4935983;29;20368;-67
2022/04/16 10:46:46;;;;;;;2.90;1.20;;;;;;;;;;4935104;29;20046;-67
2022/04/16 10:49:23;;;;;;;1.17;1.00;;;;;;;;;;4934613;29;20036;-67
2022/04/16 10:51:55;;;;;;;1.60;0.70;;;;;;;;;;4966387;28;20106;-67
2022/04/16 10:54:31;;;;;;;1.50;1.10;;;;;;;;;;4935120;29;20055;-67
2022/04/16 10:56:57;;;;;;;1.70;1.00;;;;;;;;;;4935444;29;20036;-67
2022/04/16 10:59:40;;;;;;;2.22;0.80;;;;;;;;;;4935079;29;20040;-67
2022/04/16 11:02:15;;;;;;;1.77;1.00;;;;;;;;;;4933778;29;20435;-67
2022/04/16 11:04:42;;;;;;;0.68;0.52;;;;;;;;;;4935545;29;20130;-67
2022/04/16 11:07:10;;;;;;;2.10;0.60;;;;;;;;;;4934506;29;20058;-67
2022/04/16 11:09:37;;;;;;;1.25;0.70;;;;;;;;;;4935012;29;20134;-66
2022/04/16 11:12:07;;;;;;;1.30;0.70;;;;;;;;;;4935263;29;20047;-66
2022/04/16 11:14:34;;;;;;;0.80;0.60;;;;;;;;;;4933354;29;20054;-66
2022/04/16 11:17:03;;;;;;;0.80;0.60;;;;;;;;;;4934835;29;20036;-66
2022/04/16 11:19:31;;;;;;;0.75;0.50;;;;;;;;;;4922359;29;20059;-66
2022/04/16 11:21:57;;;;;;;1.42;0.52;;;;;;;;;;4915571;29;20470;-66
2022/04/16 11:24:23;;;;;;;2.10;0.65;;;;;;;;;;4916208;29;20507;-66
2022/04/16 11:35:24;;;;;;;0.80;0.70;;;;;;;;;;4916083;29;20027;-67
2022/04/16 11:37:56;;;;;;;1.25;0.70;;;;;;;;;;4915193;29;20063;-67
2022/04/16 11:40:23;;;;;;;2.33;0.60;;;;;;;;;;4914546;29;20051;-67
2022/04/16 11:42:49;;;;;;;1.40;0.75;;;;;;;;;;4915950;29;20048;-66
2022/04/16 11:45:15;;;;;;;2.10;0.90;;;;;;;;;;4915362;29;20036;-66
2022/04/16 11:47:41;;;;;;;1.10;0.82;;;;;;;;;;4915740;29;20096;-66
2022/04/16 11:50:10;;;;;;;2.15;0.95;;;;;;;;;;4915923;29;20471;-66
2022/04/16 11:52:37;;;;;;;1.25;0.70;;;;;;;;;;4915144;29;20044;-66
2022/04/16 11:55:03;;;;;;;2.13;0.80;;;;;;;;;;4915582;29;20083;-66
2022/04/16 11:57:29;;;;;;;1.55;1.05;;;;;;;;;;4915728;29;20040;-66
2022/04/16 12:00:08;;;;;;;1.60;0.73;;;;;;;;;;4915199;29;20444;-66
2022/04/16 12:02:35;;;;;;;2.30;0.80;;;;;;;;;;4915203;29;20060;-66
2022/04/16 12:05:09;;;;;;;1.67;0.70;;;;;;;;;;4915658;29;20055;-66
2022/04/16 12:07:35;;;;;;;2.55;0.80;;;;;;;;;;4915018;29;20044;-66
2022/04/16 12:10:03;;;;;;;0.90;0.80;;;;;;;;;;4915352;29;20168;-66
2022/04/16 12:12:29;;;;;;;1.10;0.63;;;;;;;;;;4914336;29;20044;-66
2022/04/16 12:14:55;;;;;;;0.68;0.60;;;;;;;;;;4914766;29;20048;-66
2022/04/16 12:17:40;;;;;;;1.52;0.77;;;;;;;;;;4915442;29;20044;-66
2022/04/16 12:20:09;;;;;;;0.75;0.50;;;;;;;;;;4933041;29;20047;-66
2022/04/16 12:22:49;;;;;;;1.42;0.80;;;;;;;;;;4932886;29;20546;-66
2022/04/16 12:25:16;;;;;;;0.80;0.77;;;;;;;;;;4934380;29;20040;-66
2022/04/16 12:27:46;;;;;;;1.65;0.82;;;;;;;;;;4934345;29;20496;-66
2022/04/16 12:30:13;;;;;;;1.15;0.60;;;;;;;;;;4932124;29;20095;-67
2022/04/16 12:32:39;;;;;;;1.48;0.60;;;;;;;;;;4932890;29;20107;-67
2022/04/16 12:35:05;;;;;;;2.55;0.70;;;;;;;;;;4934249;29;20044;-67
2022/04/16 12:37:31;;;;;;;1.85;0.63;;;;;;;;;;4933661;29;20487;-67
2022/04/16 12:39:57;;;;;;;3.95;0.77;;;;;;;;;;4934237;29;20067;-67
2022/04/16 12:42:23;;;;;;;1.58;0.60;;;;;;;;;;4933923;29;20052;-67
2022/04/16 12:44:49;;;;;;;1.88;0.80;;;;;;;;;;4933621;29;20039;-67
2022/04/16 12:47:15;;;;;;;3.38;0.68;;;;;;;;;;4934144;29;20127;-67
2022/04/16 12:49:41;;;;;;;1.67;0.90;;;;;;;;;;4934310;29;20044;-67
2022/04/16 12:52:07;;;;;;;1.70;0.63;;;;;;;;;;4933580;29;20558;-67
2022/04/16 12:54:35;;;;;;;1.00;0.70;;;;;;;;;;4934130;29;20040;-67
2022/04/16 12:57:01;;;;;;;2.90;1.38;;;;;;;;;;4934129;29;20043;-67
2022/04/16 12:59:27;;;;;;;1.92;1.13;;;;;;;;;;4933453;29;20039;-67
2022/04/16 13:01:53;;;;;;;3.38;0.77;;;;;;;;;;4932327;29;20693;-67
2022/04/16 13:04:19;;;;;;;2.78;0.82;;;;;;;;;;4934107;29;20047;-67
2022/04/16 13:06:45;;;;;;;3.53;0.90;;;;;;;;;;4933399;29;20475;-67
2022/04/16 13:09:11;;;;;;;2.30;0.80;;;;;;;;;;4933896;29;20119;-67
2022/04/16 13:11:38;;;;;;;0.77;0.70;;;;;;;;;;4933920;29;20127;-67
2022/04/16 13:14:04;;;;;;;1.88;0.63;;;;;;;;;;4933387;29;20044;-67
2022/04/16 13:16:30;;;;;;;2.58;1.02;;;;;;;;;;4933921;29;20107;-67
2022/04/16 13:18:56;;;;;;;1.83;0.60;;;;;;;;;;4925416;29;20040;-67
2022/04/16 13:21:22;;;;;;;1.48;0.60;;;;;;;;;;4914294;29;20079;-67
2022/04/16 13:23:49;;;;;;;1.88;0.70;;;;;;;;;;4915029;29;20055;-67
2022/04/16 13:26:15;;;;;;;3.00;0.85;;;;;;;;;;4915079;29;20087;-67
2022/04/16 13:28:41;;;;;;;1.80;0.80;;;;;;;;;;4914063;29;20044;-67
2022/04/16 13:31:09;;;;;;;1.40;0.90;;;;;;;;;;4914844;29;20059;-67
2022/04/16 13:33:35;;;;;;;1.48;0.90;;;;;;;;;;4915121;29;20052;-67
2022/04/16 13:36:02;;;;;;;2.25;0.70;;;;;;;;;;4917358;29;20036;-67
2022/04/16 13:38:28;;;;;;;1.92;0.90;;;;;;;;;;4917879;29;20082;-67
2022/04/16 13:43:42;;;;;;;1.23;0.80;;;;;;;;;;4917340;29;20048;-67
2022/04/16 13:46:09;;;;;;;1.45;0.80;;;;;;;;;;4901640;29;20103;-67
2022/04/16 13:48:35;;;;;;;0.80;0.80;;;;;;;;;;4917869;29;20052;-67
2022/04/16 13:51:01;;;;;;;1.40;0.88;;;;;;;;;;4917117;29;20043;-67
2022/04/16 13:53:27;;;;;;;1.33;0.60;;;;;;;;;;4917517;29;20051;-67
2022/04/16 13:55:53;;;;;;;2.72;0.77;;;;;;;;;;4917822;29;20372;-67
2022/04/16 13:58:19;;;;;;;2.42;0.90;;;;;;;;;;4916866;29;20059;-67
2022/04/16 14:00:45;;;;;;;1.10;0.80;;;;;;;;;;4917439;29;20392;-67
2022/04/16 14:03:12;;;;;;;3.53;1.00;;;;;;;;;;4917423;29;20048;-67
2022/04/16 14:05:44;;;;;;;1.55;0.80;;;;;;;;;;4917130;29;20055;-67
2022/04/16 14:08:10;;;;;;;1.20;0.70;;;;;;;;;;4917543;29;20075;-67
2022/04/16 14:10:36;;;;;;;3.05;0.70;;;;;;;;;;4917573;29;20127;-67
2022/04/16 14:13:02;;;;;;;1.10;0.80;;;;;;;;;;4916856;29;20127;-67
2022/04/16 14:15:28;;;;;;;1.58;0.70;;;;;;;;;;4917445;29;20691;-67
2022/04/16 14:17:54;;;;;;;1.35;0.70;;;;;;;;;;4917282;29;20442;-67
2022/04/16 14:20:20;;;;;;;1.50;1.00;;;;;;;;;;4935379;29;20048;-67
2022/04/16 14:22:46;;;;;;;2.63;0.88;;;;;;;;;;4936292;29;20044;-67
2022/04/16 14:25:14;;;;;;;1.98;0.95;;;;;;;;;;4936149;29;20160;-67
2022/04/16 14:27:41;;;;;;;1.15;0.90;;;;;;;;;;4935078;29;20111;-67
2022/04/16 14:30:07;;;;;;;1.35;0.75;;;;;;;;;;4936243;29;20069;-67
2022/04/16 14:32:33;;;;;;;1.35;0.88;;;;;;;;;;4936085;29;20127;-67
2022/04/16 14:34:59;;;;;;;1.55;0.70;;;;;;;;;;4935422;29;20123;-67
2022/04/16 14:37:26;;;;;;;1.60;1.00;;;;;;;;;;4934717;29;20066;-67
2022/04/16 14:39:52;;;;;;;1.45;0.80;;;;;;;;;;4936062;29;20126;-67
2022/04/16 14:42:18;;;;;;;1.25;0.85;;;;;;;;;;4935214;29;20046;-67
2022/04/16 14:44:51;;;;;;;1.95;0.98;;;;;;;;;;4935089;29;20402;-67
2022/04/16 14:47:18;;;;;;;2.92;1.10;;;;;;;;;;4934480;29;20052;-67
2022/04/16 14:49:44;;;;;;;0.80;0.80;;;;;;;;;;4935205;29;20102;-67
2022/04/16 14:52:11;;;;;;;1.90;0.75;;;;;;;;;;4935703;29;20063;-65
2022/04/16 14:54:38;;;;;;;0.95;0.73;;;;;;;;;;4935840;29;20127;-65
2022/04/16 14:57:04;;;;;;;1.25;0.77;;;;;;;;;;4934936;29;20039;-65